Time;durP1;ratioP1;P1;durP2;ratioP2;P2;SDS_P1;SDS_P2;PMS_P1;PMS_P2;Temp;Humidity;BMP_temperature;BMP_pressure;BME280_temperature;BME280_humidity;BME280_pressure;Samples;Min_cycle;Max_cycle;Signal;HPM_P1;HPM_P2
2023/04/22 00:02:18;;;;;;;17.15;9.57;;;;;;;12.16;nan;100182.75;5000949;28;20032;-69
2023/04/22 00:04:45;;;;;;;18.33;9.45;;;;;;;12.12;nan;100182.47;4999488;28;20040;-70
2023/04/22 00:07:11;;;;;;;19.02;10.07;;;;;;;12.05;nan;100176.53;4984356;28;20037;-70
2023/04/22 00:09:37;;;;;;;17.55;9.95;;;;;;;12.00;nan;100176.47;4984329;28;20125;-70
2023/04/22 00:12:02;;;;;;;20.10;9.93;;;;;;;11.94;nan;100172.91;4997480;28;20169;-70
2023/04/22 00:14:28;;;;;;;25.05;10.20;;;;;;;11.99;nan;100186.19;4999385;28;20057;-70
2023/04/22 00:16:53;;;;;;;23.65;10.10;;;;;;;11.68;nan;100143.47;5000552;28;20054;-70
2023/04/22 00:19:19;;;;;;;21.02;11.30;;;;;;;11.89;nan;100183.41;5001791;28;20068;-70
2023/04/22 00:21:44;;;;;;;19.48;10.32;;;;;;;11.77;nan;100170.25;4998701;28;20038;-70
2023/04/22 00:24:09;;;;;;;17.90;10.52;;;;;;;11.79;nan;100184.00;4998102;28;20052;-70
2023/04/22 00:26:35;;;;;;;20.35;11.95;;;;;;;11.66;nan;100171.09;4996941;28;20029;-70
2023/04/22 00:29:00;;;;;;;19.05;11.80;;;;;;;11.60;nan;100175.50;4998571;28;20467;-70
2023/04/22 00:31:26;;;;;;;19.70;12.07;;;;;;;11.63;nan;100184.75;4994228;28;20072;-70
2023/04/22 00:33:51;;;;;;;27.48;12.50;;;;;;;11.58;nan;100185.47;5000617;28;20030;-70
2023/04/22 00:36:17;;;;;;;21.25;12.25;;;;;;;11.45;nan;100167.31;4994692;28;20161;-68
2023/04/22 00:38:47;;;;;;;18.55;11.18;;;;;;;11.42;nan;100178.31;4986144;28;20434;-71
2023/04/22 00:41:13;;;;;;;20.13;11.50;;;;;;;11.29;nan;100187.31;4999949;28;20026;-70
2023/04/22 00:43:39;;;;;;;22.85;11.70;;;;;;;11.11;nan;100187.47;4997763;28;20026;-69
2023/04/22 00:46:05;;;;;;;20.30;12.05;;;;;;;10.78;nan;100173.91;4996896;28;20033;-70
2023/04/22 00:48:30;;;;;;;17.35;10.98;;;;;;;10.74;nan;100174.59;4996213;28;20022;-70
2023/04/22 00:50:56;;;;;;;23.23;12.57;;;;;;;10.66;nan;100173.13;4978420;28;20484;-70
2023/04/22 00:53:21;;;;;;;23.85;12.30;;;;;;;10.48;nan;100168.00;5002285;28;20038;-70
2023/04/22 00:55:47;;;;;;;26.17;12.30;;;;;;;10.48;nan;100173.25;4989634;28;20411;-69
2023/04/22 00:58:13;;;;;;;20.70;13.10;;;;;;;10.48;nan;100176.69;4987615;28;20372;-69
2023/04/22 01:00:38;;;;;;;27.95;12.25;;;;;;;10.50;nan;100168.56;4980235;28;20042;-69
2023/04/22 01:03:06;;;;;;;20.77;12.75;;;;;;;10.53;nan;100187.31;4999599;28;20607;-71
2023/04/22 01:05:32;;;;;;;24.27;12.95;;;;;;;10.61;nan;100191.47;5000522;28;20022;-70
2023/04/22 01:07:58;;;;;;;29.67;12.90;;;;;;;10.60;nan;100184.56;5002993;28;20032;-69
2023/04/22 01:10:24;;;;;;;20.85;11.80;;;;;;;10.61;nan;100187.00;4988519;28;20023;-69
2023/04/22 01:12:49;;;;;;;23.77;13.02;;;;;;;10.61;nan;100181.72;4998693;28;20029;-70
2023/04/22 01:15:15;;;;;;;22.08;12.25;;;;;;;10.59;nan;100178.50;4999152;28;20038;-69
2023/04/22 01:17:40;;;;;;;19.35;11.90;;;;;;;10.56;nan;100178.16;4996323;28;20127;-70
2023/04/22 01:20:09;;;;;;;21.83;12.18;;;;;;;10.72;nan;100198.53;4995940;28;20033;-69
2023/04/22 01:22:39;;;;;;;20.63;12.47;;;;;;;10.59;nan;100177.72;4994307;28;20765;-70
2023/04/22 01:25:04;;;;;;;22.02;11.68;;;;;;;10.38;nan;100155.41;4997421;28;20148;-70
2023/04/22 01:27:30;;;;;;;23.38;12.52;;;;;;;10.47;nan;100177.72;4995316;28;20116;-70
2023/04/22 01:29:56;;;;;;;20.85;11.63;;;;;;;10.48;nan;100181.94;4996883;28;20037;-70
2023/04/22 01:32:21;;;;;;;18.70;11.55;;;;;;;10.53;nan;100197.84;4996220;28;20480;-71
2023/04/22 01:34:46;;;;;;;22.67;12.77;;;;;;;10.52;nan;100193.63;4995820;28;20057;-70
2023/04/22 01:37:12;;;;;;;21.80;12.95;;;;;;;10.26;nan;100160.63;5000916;28;20112;-70
2023/04/22 01:39:38;;;;;;;21.60;13.05;;;;;;;10.37;nan;100180.94;4988232;28;20043;-70
2023/04/22 01:42:03;;;;;;;27.58;13.18;;;;;;;10.34;nan;100181.41;4993365;28;20036;-71
2023/04/22 01:44:29;;;;;;;25.52;13.25;;;;;;;10.36;nan;100189.03;4998382;28;20026;-70
2023/04/22 01:46:54;;;;;;;26.55;13.07;;;;;;;10.33;nan;100198.19;4995790;28;20600;-70
2023/04/22 01:49:19;;;;;;;21.98;12.38;;;;;;;10.31;nan;100187.09;4996050;28;20037;-70
2023/04/22 01:51:45;;;;;;;21.10;11.98;;;;;;;10.32;nan;100207.13;4995045;28;20025;-70
2023/04/22 01:54:10;;;;;;;23.98;12.98;;;;;;;10.25;nan;100195.88;4996505;28;20024;-69
2023/04/22 01:56:39;;;;;;;28.98;12.93;;;;;;;9.99;nan;100176.84;4981320;28;20034;-70
2023/04/22 01:59:05;;;;;;;20.65;12.45;;;;;;;10.02;nan;100201.91;4999552;28;20029;-70
2023/04/22 02:01:30;;;;;;;21.13;12.88;;;;;;;9.89;nan;100195.03;4999039;28;20030;-69
2023/04/22 02:03:56;;;;;;;22.88;13.25;;;;;;;9.71;nan;100203.75;4978062;28;20041;-69
2023/04/22 02:06:21;;;;;;;21.40;12.73;;;;;;;9.72;nan;100209.81;4995134;28;20038;-70
2023/04/22 02:08:46;;;;;;;25.70;13.43;;;;;;;9.58;nan;100182.94;4997125;28;20084;-71
2023/04/22 02:11:12;;;;;;;24.50;13.80;;;;;;;9.76;nan;100206.50;4995772;28;20116;-70
2023/04/22 02:13:39;;;;;;;21.85;13.20;;;;;;;9.78;nan;100215.00;4988157;28;20026;-70
2023/04/22 02:16:05;;;;;;;27.10;12.65;;;;;;;9.23;nan;100146.00;4996813;28;20022;-69
2023/04/22 02:18:30;;;;;;;20.77;12.68;;;;;;;9.54;nan;100200.16;4996033;28;20030;-69
2023/04/22 02:20:56;;;;;;;22.73;13.52;;;;;;;9.49;nan;100197.41;4995467;28;20034;-70
2023/04/22 02:23:22;;;;;;;22.42;14.05;;;;;;;9.49;nan;100208.72;4999466;28;20649;-71
2023/04/22 02:25:49;;;;;;;26.05;13.98;;;;;;;9.53;nan;100217.78;4999614;28;20060;-70
2023/04/22 02:28:14;;;;;;;23.00;14.00;;;;;;;9.43;nan;100206.97;4997744;28;20019;-71
2023/04/22 02:30:40;;;;;;;25.75;13.50;;;;;;;9.31;nan;100201.66;4996718;28;20040;-70
2023/04/22 02:33:05;;;;;;;25.98;12.88;;;;;;;9.38;nan;100209.44;4988586;28;20022;-69
2023/04/22 02:35:30;;;;;;;26.95;13.57;;;;;;;9.34;nan;100210.94;4986708;28;20053;-69
2023/04/22 02:37:56;;;;;;;22.00;13.07;;;;;;;9.19;nan;100198.16;4995429;28;20046;-70
2023/04/22 02:40:21;;;;;;;20.58;12.20;;;;;;;9.24;nan;100219.34;4998900;28;20633;-70
2023/04/22 02:42:47;;;;;;;25.77;12.52;;;;;;;9.12;nan;100208.78;4995924;28;20031;-70
2023/04/22 02:45:13;;;;;;;19.92;12.18;;;;;;;9.12;nan;100215.81;4980495;28;20488;-69
2023/04/22 02:47:38;;;;;;;22.40;11.95;;;;;;;9.06;nan;100214.09;4983716;28;20022;-71
2023/04/22 02:50:05;;;;;;;20.52;12.27;;;;;;;9.03;nan;100215.34;4999234;28;20488;-70
2023/04/22 02:52:32;;;;;;;19.67;12.75;;;;;;;9.05;nan;100218.53;4989463;28;20665;-70
2023/04/22 02:54:57;;;;;;;24.80;12.85;;;;;;;8.92;nan;100210.78;4999304;28;20036;-71
2023/04/22 02:57:23;;;;;;;25.02;12.45;;;;;;;8.87;nan;100211.44;4983954;28;20022;-70
2023/04/22 02:59:48;;;;;;;22.67;12.60;;;;;;;8.95;nan;100220.84;5003892;28;20026;-73
2023/04/22 03:02:14;;;;;;;18.95;12.02;;;;;;;8.88;nan;100217.50;5001510;28;20100;-72
2023/04/22 03:04:39;;;;;;;26.02;13.07;;;;;;;8.92;nan;100219.47;4997581;28;20520;-72
2023/04/22 03:07:05;;;;;;;24.00;12.43;;;;;;;8.91;nan;100227.59;5001794;28;20030;-73
2023/04/22 03:09:30;;;;;;;23.30;13.25;;;;;;;8.83;nan;100233.09;4987283;28;20074;-73
2023/04/22 03:11:56;;;;;;;27.25;13.23;;;;;;;8.67;nan;100218.72;4998019;28;20053;-72
2023/04/22 03:14:21;;;;;;;23.50;12.45;;;;;;;8.60;nan;100226.66;4982398;28;20101;-73
2023/04/22 03:16:46;;;;;;;23.25;12.85;;;;;;;8.51;nan;100223.50;5001258;28;20058;-73
2023/04/22 03:19:12;;;;;;;24.90;13.05;;;;;;;8.49;nan;100228.16;5000515;28;20058;-73
2023/04/22 03:21:37;;;;;;;22.30;13.23;;;;;;;8.38;nan;100220.16;4981181;28;20060;-73
2023/04/22 03:24:02;;;;;;;27.17;13.10;;;;;;;8.25;nan;100208.75;4980770;28;20026;-72
2023/04/22 03:26:28;;;;;;;24.27;12.77;;;;;;;8.14;nan;100195.53;4986439;28;20392;-74
2023/04/22 03:28:53;;;;;;;29.13;13.48;;;;;;;8.27;nan;100219.84;4997675;28;20046;-73
2023/04/22 03:31:18;;;;;;;25.63;13.77;;;;;;;8.28;nan;100221.47;4989607;28;20080;-73
2023/04/22 03:33:44;;;;;;;27.75;13.27;;;;;;;;;;5001831;28;20444;-73
2023/04/22 03:36:12;;;;;;;25.02;12.30;;;;;;;;;;4997995;28;20507;-73
2023/04/22 03:38:38;;;;;;;24.90;13.15;;;;;;;;;;4990975;28;20041;-73
2023/04/22 03:41:03;;;;;;;24.37;12.57;;;;;;;;;;4987726;28;20085;-74
2023/04/22 03:43:28;;;;;;;29.17;12.87;;;;;;;;;;4999436;28;20299;-74
2023/04/22 03:45:53;;;;;;;31.73;12.40;;;;;;;;;;5003245;28;20654;-74
2023/04/22 03:48:19;;;;;;;24.67;12.53;;;;;;;;;;4997063;28;20279;-73
2023/04/22 03:50:44;;;;;;;27.23;13.00;;;;;;;;;;4999259;28;20033;-73
2023/04/22 03:53:10;;;;;;;23.60;12.35;;;;;;;;;;4997631;28;20276;-73
2023/04/22 03:55:35;;;;;;;31.63;12.75;;;;;;;;;;4997523;28;20030;-73
2023/04/22 03:58:00;;;;;;;27.35;12.13;;;;;;;;;;4982757;28;20085;-73
2023/04/22 04:00:26;;;;;;;24.63;13.00;;;;;;;;;;4997882;28;20030;-72
2023/04/22 04:02:51;;;;;;;25.48;12.77;;;;;;;;;;4982516;28;20859;-73
2023/04/22 04:05:16;;;;;;;26.48;12.75;;;;;;;;;;4999913;28;20026;-73
2023/04/22 04:07:42;;;;;;;31.50;14.88;;;;;;;;;;4999934;28;20088;-74
2023/04/22 04:10:09;;;;;;;30.80;13.25;;;;;;;8.64;nan;100263.78;4985309;28;20396;-73
2023/04/22 04:12:35;;;;;;;29.25;12.93;;;;;;;8.69;nan;100250.78;5000515;28;20117;-72
2023/04/22 04:15:00;;;;;;;26.55;12.65;;;;;;;8.57;nan;100242.84;4994823;28;20561;-72
2023/04/22 04:17:27;;;;;;;21.48;12.63;;;;;;;8.80;nan;100267.69;4997326;28;20085;-71
2023/04/22 04:19:53;;;;;;;23.45;12.23;;;;;;;8.88;nan;100280.53;4996190;28;20033;-72
2023/04/22 04:22:28;;;;;;;28.77;12.55;;;;;;;8.83;nan;100268.03;4984383;28;20402;-72
2023/04/22 04:24:54;;;;;;;21.98;12.70;;;;;;;8.89;nan;100276.88;4983184;28;20053;-71
2023/04/22 04:27:22;;;;;;;25.30;12.48;;;;;;;8.86;nan;100277.31;5001628;28;20395;-71
2023/04/22 04:29:48;;;;;;;26.52;12.35;;;;;;;;;;4999692;28;20081;-71
2023/04/22 04:32:13;;;;;;;27.90;13.38;;;;;;;;;;4988360;28;20034;-72
2023/04/22 04:34:39;;;;;;;28.45;12.70;;;;;;;;;;4995066;28;20393;-72
2023/04/22 04:37:04;;;;;;;24.53;12.80;;;;;;;;;;4997476;28;20030;-72
2023/04/22 04:39:29;;;;;;;25.67;12.35;;;;;;;;;;4997867;28;20758;-71
2023/04/22 04:41:57;;;;;;;23.83;12.82;;;;;;;;;;4998807;28;20034;-72
2023/04/22 04:44:22;;;;;;;29.40;13.70;;;;;;;;;;5000038;28;20033;-71
2023/04/22 04:46:49;;;;;;;25.33;12.73;;;;;;;;;;4997965;28;20037;-72
2023/04/22 04:49:15;;;;;;;26.95;14.20;;;;;;;;;;4983612;28;20396;-72
2023/04/22 04:51:41;;;;;;;29.17;13.10;;;;;;;;;;4995008;28;20037;-72
2023/04/22 04:54:06;;;;;;;36.72;13.20;;;;;;;;;;4987440;28;20038;-72
2023/04/22 04:56:31;;;;;;;28.07;12.87;;;;;;;;;;4996797;28;20030;-72
2023/04/22 04:58:56;;;;;;;25.53;13.17;;;;;;;;;;4999447;28;20841;-72
2023/04/22 05:01:22;;;;;;;26.63;14.07;;;;;;;;;;4997437;28;20278;-72
2023/04/22 05:03:47;;;;;;;25.17;13.73;;;;;;;;;;4982396;28;20846;-72
2023/04/22 05:06:13;;;;;;;31.15;13.15;;;;;;;;;;5001083;28;20334;-72
2023/04/22 05:08:39;;;;;;;24.60;13.57;;;;;;;;;;4995567;28;20474;-72
2023/04/22 05:11:04;;;;;;;27.10;13.77;;;;;;;;;;4999019;28;20286;-71
2023/04/22 05:13:29;;;;;;;26.25;13.93;;;;;;;;;;4999549;28;20267;-72
2023/04/22 05:15:55;;;;;;;29.05;14.57;;;;;;;;;;5000351;28;20022;-71
2023/04/22 05:18:20;;;;;;;25.03;13.50;;;;;;;;;;4985771;28;20500;-71
2023/04/22 05:20:45;;;;;;;28.77;13.57;;;;;;;;;;4998135;28;20329;-71
2023/04/22 05:23:11;;;;;;;30.67;14.03;;;;;;;;;;4978782;28;20508;-72
2023/04/22 05:25:36;;;;;;;31.70;14.07;;;;;;;;;;4999418;28;20274;-71
2023/04/22 05:28:01;;;;;;;32.42;14.63;;;;;;;;;;5003004;28;20426;-72
2023/04/22 05:30:26;;;;;;;31.48;14.30;;;;;;;;;;4987545;28;20034;-72
2023/04/22 05:32:52;;;;;;;31.50;15.00;;;;;;;;;;4982635;28;20091;-71
2023/04/22 05:35:17;;;;;;;27.87;13.17;;;;;;;;;;4994550;28;20036;-71
2023/04/22 05:37:42;;;;;;;21.65;12.07;;;;;;;;;;4998325;28;20069;-71
2023/04/22 05:40:08;;;;;;;51.72;22.15;;;;;;;;;;4983614;28;20057;-71
2023/04/22 05:42:33;;;;;;;22.17;12.52;;;;;;;;;;4983283;28;20117;-71
2023/04/22 05:44:58;;;;;;;22.30;12.88;;;;;;;;;;4997871;28;20025;-71
2023/04/22 05:47:24;;;;;;;26.17;12.80;;;;;;;;;;4997343;28;20030;-71
2023/04/22 05:49:49;;;;;;;23.03;11.90;;;;;;;;;;4997005;28;20473;-71
2023/04/22 05:52:15;;;;;;;21.77;11.47;;;;;;;;;;5001035;28;20302;-71
2023/04/22 05:54:40;;;;;;;24.92;11.90;;;;;;;;;;5001498;28;20280;-70
2023/04/22 05:57:05;;;;;;;21.30;11.03;;;;;;;;;;4998950;28;20033;-71
2023/04/22 05:59:30;;;;;;;23.17;11.52;;;;;;;;;;4984467;28;20784;-71
2023/04/22 06:01:56;;;;;;;19.42;11.35;;;;;;;;;;4998316;28;20656;-70
2023/04/22 06:04:21;;;;;;;25.40;12.03;;;;;;;;;;4998910;28;20738;-71
2023/04/22 06:06:46;;;;;;;17.37;11.53;;;;;;;;;;4984262;28;20026;-71
2023/04/22 06:09:12;;;;;;;22.35;10.77;;;;;;;;;;4999460;28;20779;-72
2023/04/22 06:11:37;;;;;;;19.77;10.55;;;;;;;;;;4998630;28;20022;-73
2023/04/22 06:14:02;;;;;;;17.00;10.37;;;;;;;;;;4997923;28;20453;-71
2023/04/22 06:16:28;;;;;;;19.13;11.57;;;;;;;;;;4994447;28;20290;-71
2023/04/22 06:18:53;;;;;;;20.15;11.35;;;;;;;;;;4981181;28;20145;-72
2023/04/22 06:21:19;;;;;;;20.60;12.00;;;;;;;;;;4979228;28;20030;-73
2023/04/22 06:23:44;;;;;;;17.92;10.23;;;;;;;;;;4982344;28;20375;-70
2023/04/22 06:26:10;;;;;;;21.65;11.35;;;;;;;;;;4983637;28;20053;-72
2023/04/22 06:28:35;;;;;;;22.83;11.10;;;;;;;;;;4989864;28;20129;-71
2023/04/22 06:31:01;;;;;;;21.97;11.73;;;;;;;;;;4980956;28;20556;-69
2023/04/22 06:33:26;;;;;;;20.17;11.55;;;;;;;;;;4979314;28;20100;-69
2023/04/22 06:35:51;;;;;;;23.95;12.02;;;;;;;;;;4982948;28;20621;-71
2023/04/22 06:38:16;;;;;;;22.90;12.23;;;;;;;;;;4983036;28;20814;-70
2023/04/22 06:40:42;;;;;;;21.77;12.00;;;;;;;;;;4980979;28;20288;-70
2023/04/22 06:43:10;;;;;;;21.08;11.25;;;;;;;;;;4983443;28;20109;-70
2023/04/22 06:45:35;;;;;;;24.83;10.88;;;;;;;;;;4978051;28;20053;-69
2023/04/22 06:48:00;;;;;;;22.27;10.55;;;;;;;;;;4982682;28;20583;-70
2023/04/22 06:50:26;;;;;;;19.43;10.73;;;;;;;;;;4976825;28;20571;-69
2023/04/22 06:52:52;;;;;;;16.48;10.70;;;;;;;;;;4986980;28;20275;-71
2023/04/22 06:55:17;;;;;;;21.23;10.95;;;;;;;;;;4982989;28;20037;-69
2023/04/22 06:57:42;;;;;;;18.45;10.73;;;;;;;;;;4978950;28;20335;-78
2023/04/22 07:00:08;;;;;;;25.00;11.10;;;;;;;;;;4991337;28;20560;-83
2023/04/22 07:02:33;;;;;;;18.70;10.65;;;;;;;;;;4989116;28;20034;-78
2023/04/22 07:04:58;;;;;;;26.15;11.27;;;;;;;;;;4983854;28;20023;-78
2023/04/22 07:07:24;;;;;;;25.13;10.50;;;;;;;;;;4980975;28;20022;-70
2023/04/22 07:09:49;;;;;;;21.25;11.00;;;;;;;;;;4976788;28;20634;-71
2023/04/22 07:12:15;;;;;;;19.57;10.30;;;;;;;;;;4977509;28;20151;-71
2023/04/22 07:14:43;;;;;;;18.42;10.63;;;;;;;;;;4977907;28;20291;-71
2023/04/22 07:17:09;;;;;;;22.95;10.68;;;;;;;;;;4984546;28;20048;-70
2023/04/22 07:19:35;;;;;;;19.98;10.07;;;;;;;;;;5000365;28;20034;-72
2023/04/22 07:22:00;;;;;;;24.25;11.00;;;;;;;;;;4998980;28;20026;-72
2023/04/22 07:24:25;;;;;;;22.40;10.93;;;;;;;;;;4990493;28;20060;-71
2023/04/22 07:26:50;;;;;;;20.93;11.23;;;;;;;;;;4985600;28;20129;-72
2023/04/22 07:29:16;;;;;;;22.33;11.07;;;;;;;;;;4998421;28;20754;-72
2023/04/22 07:31:41;;;;;;;20.40;10.68;;;;;;;;;;4999759;28;20283;-71
2023/04/22 07:34:08;;;;;;;26.87;12.20;;;;;;;;;;4997031;28;20030;-72
2023/04/22 07:36:33;;;;;;;24.48;11.38;;;;;;;;;;4987282;28;20385;-71
2023/04/22 07:38:58;;;;;;;22.73;11.57;;;;;;;;;;4994659;28;20117;-72
2023/04/22 07:41:23;;;;;;;19.77;12.07;;;;;;;;;;5000288;28;20022;-72
2023/04/22 07:43:49;;;;;;;20.93;12.10;;;;;;;;;;5001562;28;20768;-72
2023/04/22 07:46:14;;;;;;;20.92;11.05;;;;;;;;;;4999112;28;20264;-72
2023/04/22 07:48:39;;;;;;;21.50;11.70;;;;;;;;;;4996571;28;20063;-72
2023/04/22 07:51:04;;;;;;;22.53;11.77;;;;;;;;;;4998332;28;20036;-73
2023/04/22 07:53:30;;;;;;;25.63;12.93;;;;;;;;;;4999539;28;20287;-72
2023/04/22 07:55:55;;;;;;;21.90;11.93;;;;;;;;;;5001554;28;20476;-72
2023/04/22 07:58:20;;;;;;;20.00;11.35;;;;;;;;;;4997090;28;20327;-72
2023/04/22 08:00:45;;;;;;;27.43;12.37;;;;;;;;;;4997687;28;20030;-73
2023/04/22 08:03:11;;;;;;;19.15;11.68;;;;;;;;;;4997595;28;20049;-72
2023/04/22 08:05:36;;;;;;;21.73;12.30;;;;;;;;;;4999758;28;20026;-74
2023/04/22 08:08:01;;;;;;;25.67;11.87;;;;;;;;;;4988435;28;20117;-73
2023/04/22 08:10:26;;;;;;;24.20;14.10;;;;;;;;;;5001599;28;20287;-72
2023/04/22 08:12:52;;;;;;;21.33;11.70;;;;;;;;;;4984636;28;20048;-73
2023/04/22 08:15:17;;;;;;;19.87;11.20;;;;;;;;;;4999742;28;20293;-72
2023/04/22 08:17:43;;;;;;;21.25;11.80;;;;;;;14.81;nan;100380.88;4997098;28;20046;-71
2023/04/22 08:20:09;;;;;;;19.08;11.55;;;;;;;;;;4997311;28;20384;-69
2023/04/22 08:22:34;;;;;;;22.10;11.43;;;;;;;;;;4983318;28;20036;-71
2023/04/22 08:24:59;;;;;;;27.17;11.65;;;;;;;;;;5000086;28;20345;-72
2023/04/22 08:27:25;;;;;;;19.05;10.65;;;;;;;;;;4998957;28;20075;-71
2023/04/22 08:29:50;;;;;;;16.23;10.90;;;;;;;;;;4997641;28;20388;-71
2023/04/22 08:32:15;;;;;;;21.13;10.73;;;;;;;;;;4983540;28;20030;-75
2023/04/22 08:34:41;;;;;;;20.95;10.55;;;;;;;;;;4997642;28;20101;-73
2023/04/22 08:37:06;;;;;;;20.80;10.47;;;;;;;;;;4994386;28;20053;-71
2023/04/22 08:39:32;;;;;;;19.00;10.13;;;;;;;;;;4926266;28;20480;-72
2023/04/22 08:41:57;;;;;;;18.38;9.98;;;;;;;;;;4935917;28;20031;-74
2023/04/22 08:44:22;;;;;;;21.17;12.10;;;;;;;;;;4937313;28;20284;-71
2023/04/22 08:46:48;;;;;;;20.30;11.23;;;;;;;;;;4969335;28;20135;-73
2023/04/22 08:49:14;;;;;;;17.77;10.00;;;;;;;;;;4938528;28;20032;-73
2023/04/22 08:51:39;;;;;;;16.92;9.45;;;;;;;;;;4939065;28;20101;-72
2023/04/22 08:54:05;;;;;;;21.05;10.68;;;;;;;;;;4940639;28;20640;-73
2023/04/22 08:56:30;;;;;;;21.15;9.70;;;;;;;;;;4935630;28;20028;-73
2023/04/22 08:58:55;;;;;;;17.45;9.98;;;;;;;;;;4937775;28;20026;-73
2023/04/22 09:01:21;;;;;;;20.83;9.65;;;;;;;;;;4966597;28;20031;-73
2023/04/22 09:03:47;;;;;;;17.75;8.85;;;;;;;;;;4945143;28;20035;-73
2023/04/22 09:06:13;;;;;;;16.85;9.57;;;;;;;;;;4966497;28;20086;-74
2023/04/22 09:08:39;;;;;;;20.98;9.77;;;;;;;;;;4936176;28;20504;-73
2023/04/22 09:11:04;;;;;;;18.05;9.65;;;;;;;;;;4937214;29;20559;-71
2023/04/22 09:13:30;;;;;;;22.45;9.43;;;;;;;;;;4939129;28;20422;-76
2023/04/22 09:15:55;;;;;;;19.55;9.32;;;;;;;;;;4938618;28;20083;-77
2023/04/22 09:18:20;;;;;;;21.98;10.00;;;;;;;;;;4936019;28;20102;-76
2023/04/22 09:20:53;;;;;;;29.58;11.05;;;;;;;;;;4942217;28;20031;-77
2023/04/22 09:23:18;;;;;;;23.33;9.73;;;;;;;;;;4937231;28;20026;-76
2023/04/22 09:25:43;;;;;;;20.87;10.50;;;;;;;;;;4968506;28;20035;-77
2023/04/22 09:28:16;;;;;;;15.95;9.95;;;;;;;;;;4939791;28;20038;-77
2023/04/22 09:30:43;;;;;;;16.05;10.00;;;;;;;;;;4937835;28;20062;-76
2023/04/22 09:33:08;;;;;;;25.17;11.30;;;;;;;;;;4936582;28;20024;-73
2023/04/22 09:35:36;;;;;;;23.60;11.77;;;;;;;;;;4935090;28;20034;-72
2023/04/22 09:38:05;;;;;;;22.70;12.07;;;;;;;;;;4935694;28;20024;-73
2023/04/22 09:40:31;;;;;;;19.40;10.50;;;;;;;;;;4935746;28;20046;-74
2023/04/22 09:42:57;;;;;;;17.38;9.85;;;;;;;;;;4933062;28;20317;-72
2023/04/22 09:45:29;;;;;;;21.63;10.35;;;;;;;;;;4965477;28;20059;-72
2023/04/22 09:48:00;;;;;;;22.05;10.52;;;;;;;;;;4949696;28;20481;-73
2023/04/22 09:50:27;;;;;;;20.15;10.18;;;;;;;;;;4934510;29;20600;-72
2023/04/22 09:52:56;;;;;;;20.05;9.65;;;;;;;;;;4936254;29;20109;-73
2023/04/22 09:55:23;;;;;;;18.92;10.05;;;;;;;;;;4933891;28;20036;-73
2023/04/22 09:57:53;;;;;;;20.58;10.18;;;;;;;17.79;nan;100321.00;4936563;28;20043;-73
2023/04/22 10:00:19;;;;;;;18.80;9.60;;;;;;;17.89;nan;100275.72;4934339;29;20871;-74
2023/04/22 10:02:44;;;;;;;19.17;9.65;;;;;;;;;;4935837;28;20062;-70
2023/04/22 10:05:11;;;;;;;17.67;8.73;;;;;;;;;;4936886;28;20406;-70
2023/04/22 10:07:38;;;;;;;19.52;9.20;;;;;;;;;;4966776;28;20038;-73
2023/04/22 10:10:04;;;;;;;25.00;9.70;;;;;;;;;;4968022;28;20038;-73
2023/04/22 10:12:30;;;;;;;15.85;9.00;;;;;;;;;;4935565;29;20027;-72
2023/04/22 10:14:55;;;;;;;19.27;9.20;;;;;;;18.25;nan;100337.56;4938270;28;20032;-73
2023/04/22 10:17:20;;;;;;;18.27;8.90;;;;;;;;;;4939736;28;20043;-73
2023/04/22 10:19:47;;;;;;;18.05;9.18;;;;;;;;;;4937612;28;20070;-72
2023/04/22 10:22:12;;;;;;;19.20;8.40;;;;;;;;;;4966751;28;20052;-73
2023/04/22 10:24:38;;;;;;;15.88;8.50;;;;;;;;;;4965807;28;20035;-73
2023/04/22 10:27:07;;;;;;;13.68;8.40;;;;;;;;;;4937158;28;20058;-73
2023/04/22 10:29:37;;;;;;;15.48;7.93;;;;;;;;;;4937016;28;20106;-73
2023/04/22 10:32:23;;;;;;;14.30;7.90;;;;;;;;;;4935337;28;20023;-72
2023/04/22 10:34:49;;;;;;;15.00;8.07;;;;;;;;;;4936636;28;20027;-69
2023/04/22 10:37:18;;;;;;;17.50;7.80;;;;;;;18.52;nan;100365.63;4936520;28;20042;-68
2023/04/22 10:39:43;;;;;;;;;;;;;;;;;;4935451;28;20040;-70
2023/04/22 10:42:09;;;;;;;15.70;7.17;;;;;;;;;;4967674;28;19918;-70
2023/04/22 10:44:45;;;;;;;17.88;7.28;;;;;;;;;;4931993;28;20151;-70
2023/04/22 10:47:10;;;;;;;16.70;7.32;;;;;;;;;;4936686;28;20066;-72
2023/04/22 10:49:36;;;;;;;14.65;7.20;;;;;;;;;;4938194;28;20055;-73
2023/04/22 10:52:02;;;;;;;13.10;7.60;;;;;;;;;;4941075;28;20035;-72
2023/04/22 10:54:28;;;;;;;16.10;8.05;;;;;;;;;;4936831;28;20265;-73
2023/04/22 10:57:00;;;;;;;14.80;7.65;;;;;;;;;;4944165;28;20087;-73
2023/04/22 10:59:26;;;;;;;16.08;7.82;;;;;;;;;;4936147;28;20448;-73
2023/04/22 11:01:51;;;;;;;15.90;7.68;;;;;;;;;;4934948;28;20035;-73
2023/04/22 11:04:23;;;;;;;16.50;7.83;;;;;;;;;;4936715;28;20426;-72
2023/04/22 11:07:07;;;;;;;16.90;7.32;;;;;;;;;;4934927;28;20285;-73
2023/04/22 11:09:32;;;;;;;11.52;6.43;;;;;;;;;;4938881;28;20023;-73
2023/04/22 11:12:16;;;;;;;11.50;6.30;;;;;;;;;;4939082;28;20059;-73
2023/04/22 11:14:42;;;;;;;9.60;6.03;;;;;;;18.41;nan;100330.25;4939624;28;21334;-72
2023/04/22 11:17:07;;;;;;;10.18;6.00;;;;;;;;;;4936950;28;20063;-73
2023/04/22 11:19:32;;;;;;;12.57;7.03;;;;;;;;;;4939087;28;20030;-73
2023/04/22 11:21:58;;;;;;;13.87;5.57;;;;;;;18.41;nan;100231.59;4939594;28;20277;-72
2023/04/22 11:24:23;;;;;;;10.80;4.80;;;;;;;;;;4938675;28;20042;-74
2023/04/22 11:26:49;;;;;;;9.30;5.28;;;;;;;;;;4969514;28;20078;-73
2023/04/22 11:29:14;;;;;;;11.77;6.07;;;;;;;;;;4939794;28;20038;-73
2023/04/22 11:31:45;;;;;;;10.93;5.40;;;;;;;;;;4969049;28;20050;-75
2023/04/22 11:34:10;;;;;;;8.18;5.50;;;;;;;;;;4972823;28;20300;-72
2023/04/22 11:36:35;;;;;;;9.33;4.93;;;;;;;;;;4940391;28;20081;-72
2023/04/22 11:39:00;;;;;;;10.17;4.93;;;;;;;;;;4938315;28;20289;-72
2023/04/22 11:41:26;;;;;;;9.67;4.93;;;;;;;;;;4938790;28;20059;-72
2023/04/22 11:43:53;;;;;;;8.93;6.13;;;;;;;;;;4939792;29;20039;-72
2023/04/22 11:46:37;;;;;;;9.40;4.43;;;;;;;;;;4942864;28;20034;-73
2023/04/22 11:49:14;;;;;;;8.98;4.50;;;;;;;;;;4971607;28;20035;-73
2023/04/22 11:51:55;;;;;;;9.10;4.22;;;;;;;;;;4939687;28;20031;-73
2023/04/22 11:54:36;;;;;;;9.30;4.43;;;;;;;;;;4970736;28;20023;-74
2023/04/22 11:57:07;;;;;;;10.98;4.32;;;;;;;;;;4936250;28;20032;-74
2023/04/22 11:59:32;;;;;;;7.38;4.30;;;;;;;19.11;nan;100281.06;4970115;28;20135;-74
2023/04/22 12:01:58;;;;;;;7.03;3.78;;;;;;;;;;4966293;28;20125;-74
2023/04/22 12:04:23;;;;;;;6.47;3.83;;;;;;;;;;4934650;29;20031;-73
2023/04/22 12:06:50;;;;;;;9.27;3.80;;;;;;;19.46;nan;100269.13;4939407;28;20055;-74
2023/04/22 12:09:16;;;;;;;4.47;3.33;;;;;;;19.39;nan;100316.75;4938755;29;20036;-74
2023/04/22 12:11:44;;;;;;;8.98;4.10;;;;;;;19.49;nan;100327.31;4942008;28;20063;-74
2023/04/22 12:14:10;;;;;;;8.77;4.10;;;;;;;19.53;nan;100322.19;4938691;28;20547;-74
2023/04/22 12:16:40;;;;;;;8.10;3.95;;;;;;;19.65;nan;100319.91;4938543;28;20043;-74
2023/04/22 12:19:05;;;;;;;10.07;4.43;;;;;;;19.73;nan;100313.16;4935928;28;20038;-75
2023/04/22 12:21:31;;;;;;;12.07;3.70;;;;;;;19.79;nan;100303.19;4936468;28;20031;-74
2023/04/22 12:23:59;;;;;;;5.03;3.63;;;;;;;19.98;nan;100312.78;4969652;28;20123;-74
2023/04/22 12:26:26;;;;;;;7.72;3.85;;;;;;;19.92;nan;100308.63;4935954;28;20035;-75
2023/04/22 12:28:52;;;;;;;5.05;3.45;;;;;;;19.82;nan;100299.94;4938646;28;20134;-75
2023/04/22 12:31:18;;;;;;;6.00;3.50;;;;;;;19.94;nan;100305.63;4934674;28;20046;-74
2023/04/22 12:33:45;;;;;;;7.20;4.20;;;;;;;19.75;nan;100274.38;4936388;29;20470;-72
2023/04/22 12:36:10;;;;;;;6.78;4.28;;;;;;;20.01;nan;100299.94;4940240;28;20028;-75
2023/04/22 12:38:36;;;;;;;6.47;3.80;;;;;;;19.95;nan;100288.53;4939885;28;20540;-76
2023/04/22 12:41:03;;;;;;;6.30;3.80;;;;;;;20.05;nan;100291.03;4939709;28;20516;-75
2023/04/22 12:43:31;;;;;;;11.25;3.78;;;;;;;20.15;nan;100304.25;4969253;28;20082;-73
2023/04/22 12:45:57;;;;;;;5.95;3.70;;;;;;;20.21;nan;100288.13;4968742;28;20027;-74
2023/04/22 12:48:22;;;;;;;9.15;4.00;;;;;;;20.28;nan;100292.03;4967517;28;20030;-73
2023/04/22 12:50:47;;;;;;;7.25;3.80;;;;;;;20.36;nan;100291.34;4941497;28;20023;-74
2023/04/22 12:53:13;;;;;;;7.68;4.45;;;;;;;20.46;nan;100286.94;4936522;28;20390;-74
2023/04/22 12:55:40;;;;;;;7.72;4.13;;;;;;;20.40;nan;100259.47;4937153;28;20394;-74
2023/04/22 12:58:06;;;;;;;6.13;3.35;;;;;;;20.70;nan;100278.78;4946984;29;20038;-73
2023/04/22 13:00:31;;;;;;;5.07;2.60;;;;;;;20.80;nan;100276.69;4936778;28;20036;-74